State Line, Idaho
Current Conditions -  °F | °C
As of 4:35 AM on Tuesday 27 Jan 2015 (Local Time) from KCOE Reporting Station
Clear Clear  
Wind Chill: 22°   Ceiling: Unl
Heat Index: 28°   Visibility: 10mi
Dew Point: 27°   Wind: 6mph
Humidity: 93%   Direction: 50°NE
Pressure: 29.99"   Gusts: NA
Location:  47.7405°N, 116.957°W
Report Text: KCOE 271235Z AUTO 05005KT 10SM CLR M02/M03 A2999 RMK AO1
Loading
Personal Weather Stations






























Interactive Weather Map New forecast layout! Learn more

10-Day Weather Forecast

Advertisements
Track Severe Weather on mobile